Time;durP1;ratioP1;P1;durP2;ratioP2;P2;SDS_P1;SDS_P2;PMS_P1;PMS_P2;Temp;Humidity;BMP_temperature;BMP_pressure;BME280_temperature;BME280_humidity;BME280_pressure;Samples;Min_cycle;Max_cycle;Signal;HPM_P1;HPM_P2
2022/01/14 00:02:10;;;;;;;2.25;1.10;;;;;;;12.83;33.63;98249.97;5095991;28;20107;-33
2022/01/14 00:04:37;;;;;;;2.22;1.25;;;;;;;12.75;33.55;98245.72;5095933;28;20035;-31
2022/01/14 00:07:03;;;;;;;2.53;1.40;;;;;;;12.79;33.22;98251.16;5095818;28;20069;-31
2022/01/14 00:09:31;;;;;;;2.47;1.25;;;;;;;12.80;33.00;98247.25;5095523;28;20020;-31
2022/01/14 00:11:58;;;;;;;2.20;1.30;;;;;;;12.83;33.48;98249.97;5095677;28;20024;-32
2022/01/14 00:17:07;;;;;;;2.55;1.20;;;;;;;12.70;33.08;98246.16;5095737;28;20386;-31
2022/01/14 00:19:34;;;;;;;1.80;1.10;;;;;;;12.82;33.20;98250.38;5095551;28;20478;-31
2022/01/14 00:22:05;;;;;;;2.40;1.23;;;;;;;12.76;33.43;98254.66;5095317;28;20092;-31
2022/01/14 00:31:38;;;;;;;2.22;1.30;;;;;;;12.78;32.96;98247.66;5095490;28;20102;-31
2022/01/14 00:32:57;;;;;;;2.13;1.00;;;;;;;12.74;32.91;98252.34;5095284;28;20035;-31
2022/01/14 00:35:22;;;;;;;1.75;1.10;;;;;;;12.77;32.98;98246.09;5095370;28;20489;-31
2022/01/14 00:37:47;;;;;;;2.58;1.10;;;;;;;12.72;33.16;98241.09;5095132;28;20035;-31
2022/01/14 00:40:13;;;;;;;1.73;1.00;;;;;;;12.69;33.07;98236.44;5095062;28;20027;-31
2022/01/14 00:42:39;;;;;;;2.30;1.20;;;;;;;12.76;33.24;98232.88;5095534;28;20035;-31
2022/01/14 00:45:07;;;;;;;2.65;1.23;;;;;;;12.72;33.19;98243.81;5094082;28;20030;-31
2022/01/14 00:47:37;;;;;;;1.77;1.15;;;;;;;12.66;33.43;98239.94;5094736;28;20571;-31
2022/01/14 00:50:04;;;;;;;2.10;1.25;;;;;;;12.66;33.05;98239.94;5094894;28;20474;-30
2022/01/14 00:52:29;;;;;;;1.88;1.10;;;;;;;12.73;33.20;98236.41;5095091;28;20035;-31
2022/01/14 00:54:55;;;;;;;1.63;1.17;;;;;;;12.82;33.12;98244.94;5094661;28;20383;-31
2022/01/14 01:00:04;;;;;;;1.55;0.93;;;;;;;12.72;32.72;98243.03;5094906;28;20089;-31
2022/01/14 01:02:30;;;;;;;3.22;1.13;;;;;;;12.75;32.83;98253.13;5094514;28;20028;-31
2022/01/14 01:04:56;;;;;;;2.05;1.10;;;;;;;12.72;32.88;98249.25;5094720;28;20024;-31
2022/01/14 01:07:21;;;;;;;1.98;1.00;;;;;;;12.73;32.92;98255.47;5094452;28;20024;-31
2022/01/14 01:09:50;;;;;;;2.75;1.30;;;;;;;12.75;32.98;98253.88;5094550;28;20089;-31
2022/01/14 01:12:30;;;;;;;2.00;1.13;;;;;;;12.66;33.05;98264.44;5094672;28;20539;-31
2022/01/14 01:15:05;;;;;;;1.48;0.90;;;;;;;12.71;33.00;98264.03;5094538;28;20439;-31
2022/01/14 01:17:32;;;;;;;1.75;1.00;;;;;;;12.62;32.88;98268.34;5094401;28;20098;-30
2022/01/14 01:19:58;;;;;;;2.70;1.10;;;;;;;12.67;33.13;98271.44;5094595;28;20056;-31
2022/01/14 01:22:24;;;;;;;1.95;1.08;;;;;;;12.75;32.63;98280.34;5094197;28;20493;-31
2022/01/14 01:24:49;;;;;;;1.25;0.90;;;;;;;12.74;32.98;98270.63;5092109;28;20024;-31
2022/01/14 01:27:17;;;;;;;1.90;0.85;;;;;;;12.76;32.50;98260.88;5093597;28;20328;-31
2022/01/14 01:30:13;;;;;;;2.92;1.17;;;;;;;12.70;32.81;98250.81;5094094;28;20429;-31
2022/01/14 01:32:31;;;;;;;2.58;1.20;;;;;;;12.74;32.72;98251.56;5093318;28;20535;-31
2022/01/14 01:34:56;;;;;;;2.42;1.00;;;;;;;12.61;32.97;98237.63;5094130;28;20024;-31
2022/01/14 01:37:22;;;;;;;2.05;1.10;;;;;;;12.67;32.95;98240.72;5094004;28;20031;-31
2022/01/14 01:39:47;;;;;;;1.58;1.00;;;;;;;12.74;32.44;98241.44;5093986;28;20047;-30
2022/01/14 01:42:13;;;;;;;2.03;1.00;;;;;;;12.76;32.67;98238.31;5093893;28;20024;-31
2022/01/14 01:44:40;;;;;;;2.38;1.00;;;;;;;12.69;32.93;98235.66;5094028;28;20102;-30
2022/01/14 01:47:06;;;;;;;2.75;0.90;;;;;;;12.74;32.74;98235.22;5093850;28;20024;-31
2022/01/14 01:49:35;;;;;;;1.48;0.90;;;;;;;12.73;32.33;98242.66;5093827;28;20024;-31
2022/01/14 01:52:02;;;;;;;2.38;1.05;;;;;;;12.74;32.53;98241.44;5093878;28;20031;-31
2022/01/14 01:54:28;;;;;;;1.40;0.82;;;;;;;12.68;32.61;98255.88;5093809;28;20044;-31
2022/01/14 01:56:55;;;;;;;1.45;0.85;;;;;;;12.63;32.92;98246.16;5093715;28;20067;-31
2022/01/14 01:59:23;;;;;;;1.95;1.10;;;;;;;12.67;32.25;98240.72;5093633;28;20505;-31
2022/01/14 02:01:51;;;;;;;1.65;0.90;;;;;;;12.64;32.36;98234.09;5093612;28;20064;-31
2022/01/14 02:04:17;;;;;;;2.03;0.95;;;;;;;12.68;32.76;98231.38;5093632;28;20043;-31
2022/01/14 02:06:43;;;;;;;1.42;0.68;;;;;;;12.73;32.21;98223.59;5093611;28;20024;-31
2022/01/14 02:09:10;;;;;;;1.95;0.80;;;;;;;12.56;32.72;98225.22;5093605;28;20107;-31
2022/01/14 02:11:35;;;;;;;1.83;0.90;;;;;;;12.63;32.29;98223.63;5093541;28;20023;-31
2022/01/14 02:14:11;;;;;;;1.48;0.95;;;;;;;12.68;32.67;98215.03;5093597;28;20016;-31
2022/01/14 02:17:00;;;;;;;1.75;1.33;;;;;;;12.63;32.16;98215.44;5093530;28;20040;-31
2022/01/14 02:19:29;;;;;;;1.25;0.85;;;;;;;12.62;32.42;98217.38;5093147;28;20055;-31
2022/01/14 02:27:14;;;;;;;1.20;0.80;;;;;;;12.62;32.43;98213.88;5093167;28;20020;-31
2022/01/14 02:29:40;;;;;;;0.93;0.50;;;;;;;12.59;32.37;98212.75;5093359;28;20023;-31
2022/01/14 02:32:06;;;;;;;1.27;0.70;;;;;;;12.63;32.41;98207.28;5093348;28;20358;-31
2022/01/14 02:34:32;;;;;;;1.35;0.80;;;;;;;12.69;32.33;98211.16;5093290;28;20533;-31
2022/01/14 02:36:57;;;;;;;2.78;0.95;;;;;;;12.67;32.06;98214.28;5093185;28;20030;-31
2022/01/14 02:39:23;;;;;;;2.05;0.88;;;;;;;12.60;32.43;98208.88;5091653;28;20038;-31
2022/01/14 02:41:51;;;;;;;3.42;1.08;;;;;;;12.66;32.35;98201.06;5093126;28;20470;-31
2022/01/14 02:44:25;;;;;;;2.67;0.98;;;;;;;12.72;31.94;98208.41;5095201;28;20085;-31
2022/01/14 02:46:57;;;;;;;2.00;1.10;;;;;;;12.67;32.13;98197.16;5097314;28;20027;-31
2022/01/14 02:49:28;;;;;;;1.40;0.80;;;;;;;12.61;32.18;98204.19;5097526;28;20016;-31
2022/01/14 02:51:55;;;;;;;1.40;0.90;;;;;;;12.63;32.35;98204.56;5097510;28;20058;-30
2022/01/14 02:54:23;;;;;;;1.50;0.80;;;;;;;12.59;32.04;98197.22;5096950;28;20050;-31
2022/01/14 02:56:52;;;;;;;1.55;0.80;;;;;;;12.63;32.44;98194.44;5097303;28;20108;-31
2022/01/14 02:59:20;;;;;;;0.85;0.80;;;;;;;12.66;32.10;98195.59;5096878;28;20395;-31
2022/01/14 03:01:48;;;;;;;1.77;0.90;;;;;;;12.53;32.55;98190.63;5097007;28;20024;-31
2022/01/14 03:04:16;;;;;;;1.15;0.73;;;;;;;12.56;32.25;98191.78;5097460;28;20027;-31
2022/01/14 03:06:42;;;;;;;1.13;0.75;;;;;;;12.64;32.03;98190.56;5096988;28;20028;-31
2022/01/14 03:09:08;;;;;;;1.52;0.85;;;;;;;12.61;32.02;98187.88;5097050;28;20361;-31
2022/01/14 03:11:47;;;;;;;2.20;0.90;;;;;;;12.53;32.09;98196.06;5097076;28;20091;-31
2022/01/14 03:14:21;;;;;;;1.38;0.80;;;;;;;12.58;32.22;98186.72;5097238;28;20363;-30
2022/01/14 03:16:48;;;;;;;2.10;1.10;;;;;;;12.66;32.07;98179.28;5096980;28;20035;-31
2022/01/14 03:19:19;;;;;;;2.58;1.08;;;;;;;12.55;31.96;98176.63;5096523;28;20035;-31
2022/01/14 03:21:45;;;;;;;1.02;0.60;;;;;;;12.59;32.01;98182.81;5096559;28;20035;-31
2022/01/14 03:27:00;;;;;;;2.33;1.20;;;;;;;12.61;31.96;98182.44;5086351;28;20047;-31
2022/01/14 03:29:25;;;;;;;1.85;0.80;;;;;;;12.57;32.12;98185.94;5096490;28;20020;-32
2022/01/14 03:31:51;;;;;;;1.50;0.90;;;;;;;12.54;32.18;98184.00;5096435;28;20105;-31
2022/01/14 03:34:16;;;;;;;2.22;0.82;;;;;;;12.60;31.86;98178.94;5096570;28;20047;-31
2022/01/14 03:36:42;;;;;;;2.33;1.00;;;;;;;12.61;32.05;98172.28;5096586;28;20027;-31
2022/01/14 03:39:08;;;;;;;1.30;0.80;;;;;;;12.53;32.08;98166.13;5096536;28;20056;-31
2022/01/14 03:41:33;;;;;;;1.85;0.77;;;;;;;12.49;32.18;98165.34;5096388;28;20020;-31
2022/01/14 03:43:59;;;;;;;2.75;0.82;;;;;;;12.64;32.41;98159.84;5096371;28;20027;-31
2022/01/14 03:46:24;;;;;;;1.88;0.80;;;;;;;12.61;32.32;98161.41;5096229;28;20539;-31
2022/01/14 03:48:52;;;;;;;2.03;0.90;;;;;;;12.56;32.18;98168.06;5096233;28;20030;-33
2022/01/14 03:51:18;;;;;;;1.33;0.85;;;;;;;12.54;32.21;98167.66;5096019;28;20020;-31
2022/01/14 03:53:46;;;;;;;2.13;1.00;;;;;;;12.54;32.27;98164.19;5095951;28;20106;-31
2022/01/14 03:56:11;;;;;;;2.25;0.90;;;;;;;12.49;32.35;98161.84;5095221;28;20085;-30
2022/01/14 03:58:36;;;;;;;2.13;1.00;;;;;;;12.62;32.16;98156.72;5096138;28;20024;-31
2022/01/14 04:01:02;;;;;;;1.30;0.70;;;;;;;12.56;32.01;98164.56;5095192;28;20032;-31
2022/01/14 04:03:28;;;;;;;3.10;1.00;;;;;;;12.58;32.19;98156.78;5094588;28;20056;-31
2022/01/14 04:05:53;;;;;;;2.08;1.00;;;;;;;12.48;32.27;98157.59;5095781;28;20020;-31
2022/01/14 04:08:19;;;;;;;1.80;0.95;;;;;;;12.49;32.30;98153.69;5096117;28;20035;-30
2022/01/14 04:10:46;;;;;;;2.33;1.00;;;;;;;12.42;32.30;98149.06;5095651;28;20436;-31
2022/01/14 04:13:19;;;;;;;2.85;0.90;;;;;;;12.41;32.40;98147.53;5096056;28;20065;-31
2022/01/14 04:15:46;;;;;;;;;;;;;;;12.48;32.22;98142.06;5096249;28;20474;-31
2022/01/14 04:18:17;;;;;;;1.63;1.00;;;;;;;12.55;32.42;98136.56;5095810;28;20365;-31
2022/01/14 04:20:49;;;;;;;1.55;0.80;;;;;;;12.47;32.34;98131.56;5095332;28;20027;-31
2022/01/14 04:23:18;;;;;;;1.23;0.75;;;;;;;12.52;32.39;98142.03;5095690;28;20024;-32
2022/01/14 04:25:44;;;;;;;2.95;1.00;;;;;;;12.47;32.13;98135.06;5095304;28;20024;-30
2022/01/14 04:28:11;;;;;;;2.22;1.00;;;;;;;12.48;32.50;98135.84;5094210;28;20720;-31
2022/01/14 04:30:37;;;;;;;1.23;0.90;;;;;;;12.50;32.48;98133.47;5095410;28;20024;-32
2022/01/14 04:33:04;;;;;;;1.67;0.82;;;;;;;12.47;31.87;98135.06;5095313;28;20024;-31
2022/01/14 04:35:31;;;;;;;1.30;0.68;;;;;;;12.46;32.06;98138.19;5095341;28;20103;-31
2022/01/14 04:37:56;;;;;;;2.53;1.10;;;;;;;12.41;32.02;98135.88;5095063;28;20445;-31
2022/01/14 04:40:22;;;;;;;1.27;0.70;;;;;;;12.46;32.05;98140.91;5095256;28;20119;-31
2022/01/14 04:42:48;;;;;;;1.35;0.90;;;;;;;12.45;31.78;98133.91;5094890;28;20016;-31
2022/01/14 04:45:27;;;;;;;1.38;0.80;;;;;;;12.33;32.06;98140.56;5095098;28;20050;-31
2022/01/14 04:47:54;;;;;;;1.92;1.02;;;;;;;12.44;31.69;98138.56;5093754;28;20484;-31
2022/01/14 04:50:22;;;;;;;1.40;0.80;;;;;;;12.40;31.96;98129.66;5095106;28;20102;-30
2022/01/14 04:52:48;;;;;;;1.52;0.77;;;;;;;12.48;31.78;98131.19;5094644;28;20512;-31
2022/01/14 04:55:17;;;;;;;2.00;0.90;;;;;;;12.49;31.70;98132.69;5094839;28;20056;-31
2022/01/14 04:57:43;;;;;;;1.85;0.80;;;;;;;12.42;31.55;98132.75;5094908;28;20024;-31
2022/01/14 05:00:12;;;;;;;1.67;0.93;;;;;;;12.54;31.41;98124.13;5094792;28;20024;-31
2022/01/14 05:02:38;;;;;;;1.10;0.75;;;;;;;12.52;31.58;98126.47;5094726;28;20099;-31
2022/01/14 05:05:05;;;;;;;1.65;0.90;;;;;;;12.46;31.75;98122.63;5094772;28;20097;-31
2022/01/14 05:07:30;;;;;;;1.50;1.20;;;;;;;12.50;31.32;98122.59;5093378;28;20016;-31
2022/01/14 05:10:23;;;;;;;1.45;0.90;;;;;;;12.43;31.09;98123.41;5094601;28;20031;-32
2022/01/14 05:12:42;;;;;;;1.02;0.80;;;;;;;12.47;31.81;98121.47;5094231;28;20066;-31
2022/01/14 05:15:09;;;;;;;3.00;0.90;;;;;;;12.50;30.90;98131.53;5094816;28;20028;-31
2022/01/14 05:17:34;;;;;;;0.98;0.70;;;;;;;12.49;31.59;98127.25;5093320;28;20028;-30
2022/01/14 05:20:01;;;;;;;2.28;0.95;;;;;;;12.42;31.37;98127.31;5094242;28;20031;-30
2022/01/14 05:22:27;;;;;;;1.30;0.85;;;;;;;12.44;31.01;98127.69;5094291;28;20024;-32
2022/01/14 05:24:53;;;;;;;1.85;0.70;;;;;;;12.41;31.36;98131.19;5094458;28;20024;-31
2022/01/14 05:27:18;;;;;;;1.95;0.90;;;;;;;12.41;31.43;98125.75;5094287;28;20545;-31
2022/01/14 05:29:44;;;;;;;1.70;1.00;;;;;;;12.44;31.07;98133.13;5094245;28;20020;-31
2022/01/14 05:32:13;;;;;;;1.80;1.02;;;;;;;12.44;30.90;98133.13;5094256;28;20024;-31
2022/01/14 05:34:42;;;;;;;2.38;1.10;;;;;;;12.48;31.34;98136.63;5093958;28;20028;-31
2022/01/14 05:37:08;;;;;;;1.90;0.95;;;;;;;12.52;31.11;98137.34;5094228;28;20027;-31
2022/01/14 05:39:34;;;;;;;1.25;0.90;;;;;;;12.46;30.78;98138.19;5093955;28;20398;-30
2022/01/14 05:42:00;;;;;;;2.47;1.50;;;;;;;12.51;31.10;98130.34;5093906;28;20024;-30
2022/01/14 05:44:27;;;;;;;1.50;0.90;;;;;;;12.35;31.09;98132.03;5093953;28;20077;-31
2022/01/14 05:46:55;;;;;;;2.80;1.33;;;;;;;12.40;30.60;98126.16;5093941;28;20024;-31
2022/01/14 05:49:21;;;;;;;2.67;1.10;;;;;;;12.44;30.76;98133.13;5093713;28;20035;-31
2022/01/14 05:51:48;;;;;;;2.25;1.40;;;;;;;12.39;30.60;98130.81;5094025;28;20028;-31
2022/01/14 05:54:14;;;;;;;2.13;1.20;;;;;;;12.45;30.68;98131.97;5093566;28;20040;-30
2022/01/14 05:56:40;;;;;;;2.20;1.02;;;;;;;12.41;30.86;98128.47;5093663;28;20402;-31
2022/01/14 05:59:05;;;;;;;2.83;1.60;;;;;;;12.42;30.90;98129.25;5093465;28;20031;-31
2022/01/14 06:01:31;;;;;;;2.25;1.70;;;;;;;12.37;30.67;98129.66;5093678;28;20031;-31
2022/01/14 06:03:58;;;;;;;3.25;1.60;;;;;;;12.33;30.73;98140.56;5093705;28;20028;-31
2022/01/14 06:06:23;;;;;;;2.42;1.33;;;;;;;12.40;30.75;98137.81;5093638;28;20383;-31
2022/01/14 06:08:49;;;;;;;2.35;1.60;;;;;;;12.45;30.39;98140.13;5093542;28;20020;-31
2022/01/14 06:11:15;;;;;;;2.17;1.35;;;;;;;12.39;30.14;98138.97;5093676;28;20446;-31
2022/01/14 06:13:41;;;;;;;3.00;1.80;;;;;;;12.39;30.27;98144.41;5093200;28;20063;-30
2022/01/14 06:16:06;;;;;;;2.38;1.58;;;;;;;12.37;30.52;98135.88;5093280;28;20102;-31
2022/01/14 06:18:32;;;;;;;2.35;1.40;;;;;;;12.39;30.54;98135.47;5093203;28;20024;-31
2022/01/14 06:20:57;;;;;;;2.20;1.45;;;;;;;12.39;30.38;98128.09;5093327;28;20077;-31
2022/01/14 06:23:22;;;;;;;2.30;1.30;;;;;;;12.43;30.41;98126.13;5091118;28;20020;-31
2022/01/14 06:25:48;;;;;;;2.47;1.25;;;;;;;12.43;29.96;98123.41;5091186;28;20031;-33
2022/01/14 06:28:13;;;;;;;2.20;1.30;;;;;;;12.44;30.15;98130.41;5091432;28;20177;-33
2022/01/14 06:30:39;;;;;;;2.97;1.20;;;;;;;12.45;29.71;98121.06;5091372;28;20127;-33
2022/01/14 06:33:04;;;;;;;1.58;1.20;;;;;;;12.44;30.11;98119.53;5091157;28;20410;-33
2022/01/14 06:35:30;;;;;;;2.20;1.20;;;;;;;12.41;30.50;98116.81;5089809;28;20059;-33
2022/01/14 06:37:57;;;;;;;2.67;1.35;;;;;;;12.42;30.41;98118.38;5091140;28;20028;-33
2022/01/14 06:40:23;;;;;;;3.28;1.42;;;;;;;12.41;30.14;98114.88;5091267;28;20523;-33
2022/01/14 06:42:50;;;;;;;2.38;1.15;;;;;;;12.29;30.11;98103.66;5090991;28;20027;-32
2022/01/14 06:45:16;;;;;;;1.98;1.40;;;;;;;12.29;30.32;98106.38;5091146;28;20103;-33
2022/01/14 06:47:41;;;;;;;2.55;1.10;;;;;;;12.38;29.92;98095.84;5090873;28;20441;-33
2022/01/14 06:50:07;;;;;;;2.22;1.30;;;;;;;12.38;29.90;98110.22;5089730;28;20127;-32
2022/01/14 06:52:32;;;;;;;2.72;1.80;;;;;;;12.40;29.48;98102.44;5090963;28;20114;-33
2022/01/14 06:54:58;;;;;;;1.70;1.27;;;;;;;12.43;29.85;98101.66;5089351;28;20047;-32
2022/01/14 06:57:25;;;;;;;1.95;1.52;;;;;;;12.40;29.79;98093.50;5090918;28;20121;-33
2022/01/14 06:59:51;;;;;;;2.65;1.45;;;;;;;12.43;29.86;98104.38;5090558;28;20039;-33
2022/01/14 07:02:16;;;;;;;2.35;1.30;;;;;;;12.38;29.62;98098.56;5090950;28;20024;-32
2022/01/14 07:04:41;;;;;;;1.42;1.08;;;;;;;12.43;30.11;98101.66;5090807;28;20022;-33
2022/01/14 07:07:07;;;;;;;2.13;1.30;;;;;;;12.36;29.46;98095.47;5090910;28;20115;-33
2022/01/14 07:09:34;;;;;;;2.58;1.10;;;;;;;12.35;29.66;98100.16;5089272;28;20024;-34
2022/01/14 07:12:02;;;;;;;1.90;1.30;;;;;;;12.44;29.77;98089.59;5090241;28;20019;-33
2022/01/14 07:14:29;;;;;;;2.17;1.25;;;;;;;12.41;29.55;98097.78;5090870;28;20024;-33
2022/01/14 07:16:56;;;;;;;2.13;1.40;;;;;;;12.41;29.61;98076.78;5090714;28;20028;-33
2022/01/14 07:19:22;;;;;;;1.80;1.40;;;;;;;12.37;29.98;98077.97;5090306;28;20505;-33
2022/01/14 07:21:48;;;;;;;1.90;1.30;;;;;;;12.37;29.98;98078.72;5090928;28;20032;-33
2022/01/14 07:24:14;;;;;;;2.13;1.08;;;;;;;12.35;29.81;98072.94;5090471;28;20019;-33
2022/01/14 07:26:40;;;;;;;2.05;1.40;;;;;;;12.38;29.99;98074.84;5090669;28;20028;-33
2022/01/14 07:29:06;;;;;;;1.55;1.10;;;;;;;12.34;29.64;98082.28;5089191;28;20424;-33
2022/01/14 07:31:32;;;;;;;1.67;1.20;;;;;;;12.43;29.87;98081.81;5093061;28;20027;-33
2022/01/14 07:33:57;;;;;;;2.03;1.33;;;;;;;12.33;29.65;98086.16;5094515;28;20107;-32
2022/01/14 07:36:23;;;;;;;2.00;1.20;;;;;;;12.36;29.64;98095.47;5094295;28;20028;-33
2022/01/14 07:38:49;;;;;;;1.80;1.30;;;;;;;12.40;29.68;98101.66;5094279;28;20031;-33
2022/01/14 07:41:14;;;;;;;2.58;1.33;;;;;;;12.39;29.40;98100.09;5094298;28;20024;-33
2022/01/14 07:43:45;;;;;;;2.72;1.60;;;;;;;12.33;29.31;98099.78;5094087;28;20531;-33
2022/01/14 07:46:11;;;;;;;2.92;1.27;;;;;;;12.34;29.62;98090.44;5094466;28;20028;-33
2022/01/14 07:48:36;;;;;;;2.67;1.23;;;;;;;12.35;29.62;98091.22;5092635;28;20505;-33
2022/01/14 07:51:02;;;;;;;1.85;1.17;;;;;;;12.37;29.90;98091.56;5093995;28;20418;-33
2022/01/14 07:53:27;;;;;;;2.65;1.65;;;;;;;12.32;29.53;98090.06;5092553;28;20466;-32
2022/01/14 07:55:53;;;;;;;3.20;1.50;;;;;;;12.38;29.80;98093.88;5094076;28;20040;-30
2022/01/14 07:58:18;;;;;;;3.25;1.70;;;;;;;12.31;29.75;98093.94;5093989;28;20028;-30
2022/01/14 08:00:44;;;;;;;2.65;1.70;;;;;;;12.37;29.85;98095.06;5093694;28;20032;-30
2022/01/14 08:03:09;;;;;;;4.30;1.45;;;;;;;12.39;29.58;98100.88;5093750;28;20393;-30
2022/01/14 08:05:35;;;;;;;2.10;1.35;;;;;;;12.25;29.92;98100.97;5093793;28;20477;-30
2022/01/14 08:08:04;;;;;;;2.42;1.25;;;;;;;12.32;29.57;98100.94;5093644;28;20101;-30
2022/01/14 08:10:31;;;;;;;3.55;1.40;;;;;;;12.36;29.62;98093.53;5093550;28;20122;-30
2022/01/14 08:12:56;;;;;;;2.33;1.30;;;;;;;12.37;29.67;98097.78;5093418;28;20035;-30
2022/01/14 08:15:23;;;;;;;2.58;1.30;;;;;;;12.30;29.57;98097.84;5093611;28;20383;-33
2022/01/14 08:17:49;;;;;;;2.05;1.35;;;;;;;12.34;29.85;98095.88;5093235;28;20093;-30
2022/01/14 08:20:14;;;;;;;2.47;1.45;;;;;;;12.37;29.45;98086.13;5093576;28;20059;-30
2022/01/14 08:22:40;;;;;;;2.85;1.45;;;;;;;12.38;29.54;98083.00;5091999;28;20032;-30
2022/01/14 08:25:06;;;;;;;3.05;1.55;;;;;;;12.38;29.78;98082.22;5093632;28;20024;-30
2022/01/14 08:27:31;;;;;;;3.67;1.80;;;;;;;12.34;29.80;98076.84;5093431;28;20036;-30
2022/01/14 08:29:57;;;;;;;2.60;1.80;;;;;;;12.22;29.73;98071.84;5093495;28;20020;-30
2022/01/14 08:32:22;;;;;;;2.92;1.70;;;;;;;12.29;29.83;98079.97;5093182;28;20056;-32
2022/01/14 08:34:49;;;;;;;3.15;1.90;;;;;;;12.36;29.72;98079.94;5093064;28;20027;-30
2022/01/14 08:37:15;;;;;;;2.97;1.60;;;;;;;12.23;29.98;98081.56;5093503;28;20036;-30
2022/01/14 08:39:41;;;;;;;4.07;2.00;;;;;;;12.26;29.81;98075.31;5093216;28;20032;-30
2022/01/14 08:42:09;;;;;;;3.88;2.20;;;;;;;12.38;29.62;98074.06;5093177;28;20107;-30
2022/01/14 08:44:36;;;;;;;5.63;2.60;;;;;;;12.35;29.47;98077.59;5091466;28;20442;-30
2022/01/14 08:47:09;;;;;;;5.50;2.40;;;;;;;12.08;30.01;98074.63;5092684;28;20058;-30
2022/01/14 08:49:35;;;;;;;5.20;2.60;;;;;;;12.23;29.97;98076.13;5093837;28;20432;-30
2022/01/14 08:52:00;;;;;;;4.95;2.50;;;;;;;12.26;29.78;98083.47;5094994;28;20039;-31
2022/01/14 08:54:25;;;;;;;4.43;2.38;;;;;;;12.30;29.56;98078.78;5094718;28;20048;-31
2022/01/14 08:56:51;;;;;;;4.28;2.25;;;;;;;12.31;29.64;98080.34;5094864;28;20040;-31
2022/01/14 08:59:17;;;;;;;4.75;2.53;;;;;;;12.21;29.66;98081.19;5094622;28;20508;-30
2022/01/14 09:01:43;;;;;;;4.32;3.20;;;;;;;11.23;28.93;98086.50;5094652;28;20051;-31
2022/01/14 09:04:09;;;;;;;4.43;2.95;;;;;;;11.64;28.81;98083.31;5093478;28;20056;-30
2022/01/14 09:06:35;;;;;;;6.63;2.95;;;;;;;11.80;28.30;98080.97;5094726;28;20069;-31
2022/01/14 09:09:00;;;;;;;4.88;3.08;;;;;;;11.97;28.72;98092.94;5094641;28;20032;-31
2022/01/14 09:11:26;;;;;;;4.85;3.17;;;;;;;12.01;28.79;98096.41;5093428;28;20061;-30
2022/01/14 09:13:51;;;;;;;5.15;3.08;;;;;;;12.17;29.15;98097.50;5094753;28;20024;-30
2022/01/14 09:16:20;;;;;;;4.57;2.72;;;;;;;12.26;29.15;98102.50;5094577;28;20040;-30
2022/01/14 09:18:48;;;;;;;5.53;2.80;;;;;;;12.30;29.01;98108.72;5094631;28;20031;-30
2022/01/14 09:21:15;;;;;;;3.63;2.40;;;;;;;12.28;29.32;98100.16;5112453;28;20019;-30
2022/01/14 09:23:42;;;;;;;4.38;2.75;;;;;;;12.22;29.42;98096.34;5099650;28;20028;-30
2022/01/14 09:26:07;;;;;;;5.03;2.75;;;;;;;12.30;29.10;98100.56;5094382;28;20080;-30
2022/01/14 09:28:34;;;;;;;2.83;1.95;;;;;;;12.27;29.40;98097.84;5094607;28;20111;-30
2022/01/14 09:30:59;;;;;;;5.65;2.60;;;;;;;12.24;29.13;98111.06;5094289;28;20462;-30
2022/01/14 09:33:24;;;;;;;2.60;1.83;;;;;;;12.22;29.77;98108.00;5094089;28;20034;-30
2022/01/14 09:35:50;;;;;;;4.25;2.30;;;;;;;12.31;29.28;98104.81;5094360;28;20123;-30
2022/01/14 09:38:16;;;;;;;3.67;2.17;;;;;;;12.18;29.66;98111.88;5094234;28;20107;-31
2022/01/14 09:40:44;;;;;;;4.72;2.58;;;;;;;12.20;29.54;98104.88;5093896;28;20036;-30
2022/01/14 09:43:14;;;;;;;4.10;2.40;;;;;;;12.20;29.57;98110.31;5094187;28;20019;-30
2022/01/14 09:45:40;;;;;;;4.50;2.50;;;;;;;12.28;29.42;98108.34;5094020;28;20028;-30
2022/01/14 09:48:06;;;;;;;3.38;2.30;;;;;;;12.22;29.78;98105.28;5093833;28;20024;-31
2022/01/14 09:50:32;;;;;;;3.17;2.40;;;;;;;12.32;29.54;98111.03;5093882;28;20082;-30
2022/01/14 09:52:57;;;;;;;3.42;2.40;;;;;;;12.10;29.62;98116.59;5093616;28;20024;-30
2022/01/14 09:55:26;;;;;;;2.80;1.90;;;;;;;12.13;29.89;98109.56;5093634;28;20051;-30
2022/01/14 09:57:57;;;;;;;4.10;2.17;;;;;;;12.07;30.19;98105.72;5093986;28;20031;-30
2022/01/14 10:00:22;;;;;;;6.05;2.65;;;;;;;12.11;30.12;98103.78;5094036;28;20023;-30
2022/01/14 10:02:49;;;;;;;2.75;1.63;;;;;;;11.86;30.21;98106.59;5093695;28;20024;-32
2022/01/14 10:05:36;;;;;;;2.70;1.83;;;;;;;11.96;30.25;98111.22;5093728;28;20031;-31
2022/01/14 10:08:09;;;;;;;3.90;2.20;;;;;;;12.17;30.38;98104.91;5093871;28;20412;-30
2022/01/14 10:10:37;;;;;;;2.83;1.92;;;;;;;12.20;30.13;98093.22;5092178;28;20028;-30
2022/01/14 10:13:24;;;;;;;3.10;1.92;;;;;;;12.24;30.07;98089.31;5093366;28;20063;-30
2022/01/14 10:15:53;;;;;;;3.47;1.90;;;;;;;12.13;30.25;98093.25;5093388;28;20028;-30
2022/01/14 10:18:21;;;;;;;3.60;1.73;;;;;;;11.73;29.80;98097.28;5093474;28;20024;-30
2022/01/14 10:20:47;;;;;;;3.05;1.83;;;;;;;11.84;30.69;98085.22;5093392;28;20080;-30
2022/01/14 10:23:39;;;;;;;4.47;2.42;;;;;;;12.09;30.51;98081.63;5093311;28;20023;-30
2022/01/14 10:26:04;;;;;;;2.88;1.92;;;;;;;12.36;30.08;98079.16;5093463;28;20020;-30
2022/01/14 10:28:30;;;;;;;6.28;3.13;;;;;;;12.23;29.92;98074.19;5093225;28;20028;-32
2022/01/14 10:30:55;;;;;;;3.80;1.85;;;;;;;12.43;30.23;98079.09;5093483;28;20024;-30
2022/01/14 10:33:26;;;;;;;7.05;2.53;;;;;;;12.29;29.85;98073.75;5093233;28;20047;-30
2022/01/14 10:35:52;;;;;;;5.55;2.67;;;;;;;12.21;30.34;98071.06;5093294;28;20103;-30
2022/01/14 10:38:23;;;;;;;5.47;2.67;;;;;;;12.17;29.65;98070.31;5093279;28;20166;-30
2022/01/14 10:40:50;;;;;;;4.95;2.45;;;;;;;12.21;30.33;98062.13;5092953;28;20031;-30
2022/01/14 10:43:22;;;;;;;5.07;2.75;;;;;;;12.44;30.29;98059.66;5092897;28;20478;-30
2022/01/14 10:45:49;;;;;;;4.65;2.75;;;;;;;12.46;30.12;98060.03;5092145;28;20477;-30
2022/01/14 10:48:18;;;;;;;5.70;2.70;;;;;;;12.49;30.38;98053.78;5091430;28;20109;-30
2022/01/14 10:50:54;;;;;;;6.90;2.97;;;;;;;12.40;30.33;98058.91;5091770;28;20024;-30
2022/01/14 10:53:29;;;;;;;5.60;2.45;;;;;;;12.53;30.53;98054.53;5093062;28;20547;-30
2022/01/14 10:56:03;;;;;;;5.10;2.60;;;;;;;12.44;30.54;98046.06;5092718;28;20052;-30
2022/01/14 10:58:33;;;;;;;5.15;2.22;;;;;;;12.39;30.94;98038.31;5092855;28;20055;-30
2022/01/14 11:01:12;;;;;;;4.95;2.65;;;;;;;12.44;30.79;98031.69;5092814;28;20028;-30
2022/01/14 11:03:57;;;;;;;4.93;2.22;;;;;;;12.27;30.09;98025.16;5092865;28;20024;-30
2022/01/14 11:06:31;;;;;;;4.97;1.90;;;;;;;12.46;30.75;98019.22;5094823;28;20035;-30
2022/01/14 11:09:05;;;;;;;5.38;2.35;;;;;;;12.48;30.74;98022.31;5097189;28;20031;-31
2022/01/14 11:11:33;;;;;;;5.00;2.30;;;;;;;12.43;31.06;98020.03;5096921;28;20054;-30
2022/01/14 11:13:58;;;;;;;3.85;2.05;;;;;;;12.27;31.48;98011.56;5097075;28;20103;-30
2022/01/14 11:16:25;;;;;;;3.65;2.15;;;;;;;12.35;31.57;98007.66;5095440;28;20048;-30
2022/01/14 11:18:51;;;;;;;4.65;2.58;;;;;;;12.42;31.17;98004.88;5096797;28;20382;-31
2022/01/14 11:24:05;;;;;;;4.55;2.13;;;;;;;12.49;31.33;97996.63;5096691;28;20540;-31
2022/01/14 11:26:41;;;;;;;3.90;2.20;;;;;;;12.45;31.34;97989.69;5096672;28;20048;-31
2022/01/14 11:29:17;;;;;;;5.03;2.20;;;;;;;12.42;31.37;97993.22;5096384;28;20020;-31
2022/01/14 11:31:43;;;;;;;4.57;2.05;;;;;;;12.57;31.07;97981.03;5096713;28;20020;-30
2022/01/14 11:34:30;;;;;;;4.45;2.33;;;;;;;12.55;31.56;97978.72;5096625;28;20023;-30
2022/01/14 11:36:57;;;;;;;4.95;2.20;;;;;;;12.38;31.52;97974.19;5096467;28;20030;-30
2022/01/14 11:39:26;;;;;;;4.40;2.40;;;;;;;12.50;31.40;97970.97;5096254;28;20030;-31
2022/01/14 11:42:00;;;;;;;3.65;1.90;;;;;;;12.56;31.26;97974.81;5096335;28;20027;-30
2022/01/14 11:44:41;;;;;;;4.38;1.95;;;;;;;12.41;31.42;97973.38;5096360;28;20077;-30
2022/01/14 11:47:06;;;;;;;4.32;2.03;;;;;;;12.53;31.40;97966.69;5096175;28;20024;-30
2022/01/14 11:49:38;;;;;;;3.00;1.80;;;;;;;12.51;31.60;97964.34;5096140;28;20523;-30
2022/01/14 11:52:06;;;;;;;4.45;2.10;;;;;;;12.45;31.72;97959.75;5095991;28;20077;-30
2022/01/14 11:54:43;;;;;;;3.42;1.65;;;;;;;12.49;31.62;97957.75;5095698;28;20072;-31
2022/01/14 11:57:09;;;;;;;4.07;2.15;;;;;;;12.58;31.79;97948.00;5096047;28;20366;-31
2022/01/14 11:59:34;;;;;;;3.53;1.88;;;;;;;12.54;31.36;97947.25;5095886;28;20020;-31